Terminal Aerodrome Forecast
Issued by NWS

Current Version | Previous Version | Graphics & Text | Print | Product List | Glossary On
Versions: 1 2 3 4 5 6 7 8 9 10 11 12 13 14
785
FTUS41 KPBZ 261432 AAA
TAFMGW
TAF AMD
KMGW 261432Z 2615/2712 16005KT P6SM OVC070
     FM261600 21007KT P6SM VCTS BKN040CB
     FM262200 22005KT P6SM BKN080=

USA.gov is the U.S. government's official web portal to all federal, state and local government web resources and services.